Time;durP1;ratioP1;P1;durP2;ratioP2;P2;SDS_P1;SDS_P2;PMS_P1;PMS_P2;Temp;Humidity;BMP_temperature;BMP_pressure;BME280_temperature;BME280_humidity;BME280_pressure;Samples;Min_cycle;Max_cycle;Signal;HPM_P1;HPM_P2
2022/04/06 00:02:32;;;;;;;;;18.25;12.75;;;;;10.51;68.43;100733.53;146602;574;46917;-68
2022/04/06 00:05:25;;;;;;;;;15.50;12.25;;;;;10.50;67.32;100729.19;146603;573;47010;-68
2022/04/06 00:08:16;;;;;;;;;16.75;15.75;;;;;10.55;68.35;100734.59;146630;719;45008;-69
2022/04/06 00:11:09;;;;;;;;;14.50;13.50;;;;;10.55;68.01;100740.66;146627;719;45017;-68
2022/04/06 00:14:01;;;;;;;;;17.50;14.25;;;;;10.56;68.64;100745.06;146615;769;46026;-69
2022/04/06 00:16:54;;;;;;;;;16.50;12.50;;;;;10.55;69.26;100743.25;146608;582;46016;-69
2022/04/06 00:19:46;;;;;;;;;15.00;13.25;;;;;10.54;68.46;100744.06;146613;598;47008;-70
2022/04/06 00:22:39;;;;;;;;;18.50;14.75;;;;;10.54;67.93;100744.06;146608;581;47010;-69
2022/04/06 00:25:32;;;;;;;;;21.00;17.25;;;;;10.54;67.53;100746.66;146609;579;47012;-68
2022/04/06 00:28:24;;;;;;;;;17.00;15.50;;;;;10.55;67.44;100745.84;146607;577;46029;-73
2022/04/06 00:31:17;;;;;;;;;21.75;19.25;;;;;10.56;69.41;100757.09;146611;592;47008;-74
2022/04/06 00:34:09;;;;;;;;;26.75;23.25;;;;;10.50;69.77;100752.53;146609;564;46017;-74
2022/04/06 00:37:01;;;;;;;;;22.00;18.00;;;;;10.48;68.85;100761.91;146616;584;46008;-75
2022/04/06 00:39:53;;;;;;;;;23.50;19.75;;;;;10.48;68.83;100753.25;146605;658;46016;-72
2022/04/06 00:42:46;;;;;;;;;19.50;16.75;;;;;10.48;69.80;100759.31;146615;627;46008;-72
2022/04/06 00:45:39;;;;;;;;;19.00;16.25;;;;;10.49;69.48;100755.00;146609;575;47010;-72
2022/04/06 00:48:31;;;;;;;;;19.75;17.00;;;;;10.50;69.46;100764.56;146615;590;46012;-72
2022/04/06 00:51:23;;;;;;;;;20.00;18.50;;;;;10.53;68.78;100763.06;146607;616;47010;-71
2022/04/06 00:54:23;;;;;;;;;35.25;31.50;;;;;10.59;67.77;100759.84;146611;710;46020;-71
2022/04/06 00:57:15;;;;;;;;;21.75;17.75;;;;;10.64;69.59;100767.06;146608;597;45858;-70
2022/04/06 01:00:10;;;;;;;;;19.75;16.75;;;;;10.69;68.74;100756.06;146611;590;47008;-71
2022/04/06 01:03:03;;;;;;;;;26.00;20.75;;;;;8.90;68.07;100462.66;146608;570;46016;-69
2022/04/06 01:05:55;;;;;;;;;45.00;35.75;;;;;10.75;68.07;100754.66;146609;634;46020;-70
2022/04/06 01:08:47;;;;;;;;;21.00;20.50;;;;;10.78;68.60;100743.56;146602;570;46017;-69
2022/04/06 01:11:40;;;;;;;;;20.25;17.00;;;;;10.78;69.24;100740.97;146607;585;46020;-70
2022/04/06 01:14:33;;;;;;;;;17.25;16.25;;;;;10.77;70.32;100746.94;146603;619;46016;-69
2022/04/06 01:17:25;;;;;;;;;20.50;17.75;;;;;10.71;70.64;100755.31;146609;632;46021;-68
2022/04/06 01:20:18;;;;;;;;;17.75;15.50;;;;;10.67;70.19;100745.59;146605;611;45914;-69
2022/04/06 01:23:09;;;;;;;;;20.50;15.75;;;;;10.64;70.24;100748.91;146607;570;46020;-70
2022/04/06 01:26:02;;;;;;;;;17.75;16.75;;;;;10.64;69.95;100759.28;146605;600;46016;-71
2022/04/06 01:28:54;;;;;;;;;16.25;14.50;;;;;10.61;69.25;100760.84;146609;632;46012;-69
2022/04/06 01:31:46;;;;;;;;;15.25;14.75;;;;;10.61;70.57;100760.84;146604;565;46017;-69
2022/04/06 01:34:38;;;;;;;;;18.50;14.50;;;;;10.58;69.77;100761.56;146608;571;46020;-68
2022/04/06 01:37:31;;;;;;;;;15.75;13.75;;;;;10.55;69.61;100764.00;146605;597;46010;-70
2022/04/06 01:40:23;;;;;;;;;17.25;15.50;;;;;10.53;69.53;100768.22;146606;565;47008;-68
2022/04/06 01:43:16;;;;;;;;;15.75;13.75;;;;;10.49;69.96;100768.87;146602;597;47010;-68
2022/04/06 01:46:08;;;;;;;;;15.25;12.75;;;;;10.49;70.66;100770.56;146608;649;46021;-68
2022/04/06 01:52:13;;;;;;;;;23.75;17.00;;;;;10.43;70.58;100781.50;146607;588;46020;-67
2022/04/06 01:55:11;;;;;;;;;17.25;13.00;;;;;10.40;70.08;100774.47;146603;617;47010;-69
2022/04/06 01:58:03;;;;;;;;;16.00;15.50;;;;;10.38;71.25;100768.31;146605;636;46916;-68
2022/04/06 02:00:56;;;;;;;;;24.00;21.00;;;;;10.36;70.06;100763.84;146602;611;46010;-66
2022/04/06 02:03:48;;;;;;;;;18.50;17.50;;;;;10.34;71.33;100758.59;146606;685;46020;-66
2022/04/06 02:06:41;;;;;;;;;15.25;14.75;;;;;10.34;69.85;100768.97;146604;570;46013;-68
2022/04/06 02:09:36;;;;;;;;;24.50;21.75;;;;;10.36;69.33;100772.50;146605;607;46021;-69
2022/04/06 02:12:29;;;;;;;;;20.50;17.50;;;;;10.38;69.09;100770.91;146602;603;46016;-69
2022/04/06 02:15:21;;;;;;;;;20.50;17.75;;;;;10.38;68.93;100767.44;146609;579;46029;-69
2022/04/06 02:18:14;;;;;;;;;20.75;15.25;;;;;10.39;68.48;100774.38;146603;669;47012;-70
2022/04/06 02:21:05;;;;;;;;;16.50;13.75;;;;;10.38;68.95;100783.88;146607;597;46020;-70
2022/04/06 02:23:58;;;;;;;;;18.75;18.00;;;;;10.36;69.15;100776.81;146603;607;47010;-69
2022/04/06 02:26:50;;;;;;;;;19.00;17.25;;;;;10.32;69.16;100780.06;146607;698;46008;-69
2022/04/06 02:29:45;;;;;;;;;19.25;17.00;;;;;10.27;69.28;100778.91;146604;695;46017;-68
2022/04/06 02:32:37;;;;;;;;;18.00;16.75;;;;;10.24;69.74;100781.31;146609;660;46008;-68
2022/04/06 02:35:29;;;;;;;;;18.25;16.00;;;;;10.22;70.06;100780.31;146605;626;46914;-69
2022/04/06 02:38:21;;;;;;;;;15.75;15.00;;;;;10.22;69.38;100786.44;146608;585;46021;-68
2022/04/06 02:41:14;;;;;;;;;24.50;21.50;;;;;10.20;69.65;100780.25;146604;667;46016;-69
2022/04/06 02:44:06;;;;;;;;;14.75;13.00;;;;;10.21;68.99;100787.22;146610;594;46020;-68
2022/04/06 02:46:58;;;;;;;;;16.00;13.25;;;;;10.18;71.65;100784.47;146604;569;46016;-68
2022/04/06 02:49:51;;;;;;;;;16.25;14.25;;;;;10.17;70.43;100798.25;146610;608;46012;-68
2022/04/06 02:52:43;;;;;;;;;14.25;12.25;;;;;10.14;70.19;100792.87;146605;603;46016;-70
2022/04/06 02:55:34;;;;;;;;;12.75;10.75;;;;;10.14;70.78;100798.94;146608;661;46020;-68
2022/04/06 02:58:27;;;;;;;;;15.50;14.00;;;;;10.11;71.25;100793.59;146604;582;46010;-69
2022/04/06 03:01:19;;;;;;;;;17.50;12.75;;;;;10.06;70.72;100792.50;146609;607;46021;-68
2022/04/06 03:04:11;;;;;;;;;15.75;15.25;;;;;10.02;70.25;100805.19;146603;569;46010;-68
2022/04/06 03:07:02;;;;;;;;;16.75;13.25;;;;;10.01;69.87;100812.06;146610;661;46021;-67
2022/04/06 03:09:54;;;;;;;;;29.00;24.25;;;;;10.00;69.93;100805.09;146603;587;46010;-67
2022/04/06 03:12:47;;;;;;;;;16.50;14.50;;;;;10.00;69.83;100802.53;146607;593;46020;-68
2022/04/06 03:15:39;;;;;;;;;18.25;13.00;;;;;10.00;70.32;100804.19;146601;623;46032;-68
2022/04/06 03:18:31;;;;;;;;;17.75;15.25;;;;;9.96;70.52;100792.78;146606;618;46020;-66
2022/04/06 03:21:23;;;;;;;;;18.25;17.25;;;;;9.94;70.09;100797.88;146600;577;47010;-68
2022/04/06 03:24:15;;;;;;;;;19.25;16.00;;;;;9.93;70.02;100800.38;146609;700;46020;-68
2022/04/06 03:27:08;;;;;;;;;17.00;16.50;;;;;9.95;70.44;100806.53;146601;605;47012;-68
2022/04/06 03:30:00;;;;;;;;;18.00;17.25;;;;;9.96;71.04;100805.72;146607;679;47009;-68
2022/04/06 03:32:52;;;;;;;;;14.75;13.50;;;;;9.95;70.08;100796.19;146605;601;46010;-68
2022/04/06 03:35:45;;;;;;;;;18.00;14.00;;;;;9.93;70.70;100801.25;146605;727;46916;-67
2022/04/06 03:38:37;;;;;;;;;13.50;12.50;;;;;9.92;70.22;100796.91;146604;590;47010;-67
2022/04/06 03:41:29;;;;;;;;;17.25;16.00;;;;;9.91;71.24;100802.91;146608;638;47008;-67
2022/04/06 03:44:32;;;;;;;;;16.00;13.25;;;;;9.89;70.23;100807.09;146600;597;47012;-67
2022/04/06 03:47:31;;;;;;;;;18.75;16.50;;;;;9.88;70.71;100802.72;146610;570;46008;-67
2022/04/06 03:50:23;;;;;;;;;17.00;15.50;;;;;9.86;72.08;100806.91;146602;608;46016;-68
2022/04/06 03:53:36;;;;;;;;;20.25;17.75;;;;;9.88;70.41;100812.19;146607;603;46021;-67
2022/04/06 03:56:29;;;;;;;;;20.25;18.00;;;;;9.89;70.54;100808.78;146602;564;46016;-69
2022/04/06 03:59:54;;;;;;;;;20.00;17.25;;;;;9.92;69.09;100815.03;146610;572;46008;-69
2022/04/06 04:03:11;;;;;;;;;17.00;15.50;;;;;8.86;69.46;100616.75;146604;575;46016;-69
2022/04/06 04:06:16;;;;;;;;;18.00;16.50;;;;;10.02;69.00;100825.91;146610;625;46020;-69
2022/04/06 04:09:37;;;;;;;;;18.50;16.25;;;;;10.07;68.72;100832.22;146601;582;47010;-69
2022/04/06 04:12:31;;;;;;;;;17.25;15.75;;;;;10.12;69.41;100833.34;146612;613;46020;-69
2022/04/06 04:15:31;;;;;;;;;16.50;13.75;;;;;10.16;68.71;100835.34;146607;668;47010;-69
2022/04/06 04:19:20;;;;;;;;;18.25;14.50;;;;;8.99;68.61;100637.31;146606;591;46020;-69
2022/04/06 04:22:27;;;;;;;;;12.00;12.00;;;;;10.21;69.08;100852.00;146606;581;46017;-69
2022/04/06 04:25:22;;;;;;;;;21.50;18.25;;;;;10.21;69.09;100853.72;146612;602;46026;-70
2022/04/06 04:28:22;;;;;;;;;24.25;15.25;;;;;10.25;68.85;100856.56;146606;599;47011;-69
2022/04/06 04:31:26;;;;;;;;;22.50;17.00;;;;;10.30;68.84;100854.25;146608;606;46020;-69
2022/04/06 04:34:21;;;;;;;;;20.25;18.50;;;;;10.35;68.77;100856.28;146604;565;47010;-68
2022/04/06 04:37:33;;;;;;;;;17.00;15.75;;;;;10.40;68.26;100862.62;146612;601;47008;-70
2022/04/06 04:40:40;;;;;;;;;21.25;17.50;;;;;10.47;68.27;100870.72;146603;563;47913;-68
2022/04/06 04:43:37;;;;;;;;;20.25;17.25;;;;;10.49;68.44;100872.56;146611;589;46020;-69
2022/04/06 04:47:05;;;;;;;;;20.75;17.75;;;;;10.53;68.00;100866.75;146609;574;46016;-68
2022/04/06 04:50:24;;;;;;;;;27.75;21.00;;;;;10.59;67.70;100869.69;146609;665;47012;-69
2022/04/06 04:53:38;;;;;;;;;;;;;;;;;;;;;
2022/04/06 04:56:42;;;;;;;;;30.50;24.50;;;;;10.95;68.60;100889.69;146613;584;46008;-68
2022/04/06 04:59:52;;;;;;;;;31.75;28.25;;;;;11.20;67.26;100881.47;146603;585;47010;-68
2022/04/06 05:03:25;;;;;;;;;33.25;30.50;;;;;11.41;67.00;100885.16;146610;595;46012;-68
2022/04/06 05:06:39;;;;;;;;;28.00;25.75;;;;;11.53;66.33;100888.34;146602;580;47010;-69
2022/04/06 05:10:26;;;;;;;;;31.25;27.25;;;;;11.71;65.47;100898.78;146609;677;46020;-68
2022/04/06 05:13:27;;;;;;;;;29.75;26.75;;;;;11.91;65.90;100891.97;146598;566;46017;-68
2022/04/06 05:16:33;;;;;;;;;24.25;19.00;;;;;12.13;65.63;100888.69;146611;629;46020;-69
2022/04/06 05:19:41;;;;;;;;;23.25;22.25;;;;;12.35;65.56;100892.31;146610;594;46010;-69
2022/04/06 05:22:51;;;;;;;;;25.25;23.50;;;;;12.58;64.92;100893.34;146614;569;46008;-69
2022/04/06 05:26:04;;;;;;;;;30.75;28.50;;;;;12.80;64.67;100900.41;146604;569;46016;-69
2022/04/06 05:29:25;;;;;;;;;49.25;38.25;;;;;13.03;63.53;100904.94;146624;569;45021;-68
2022/04/06 05:32:20;;;;;;;;;36.25;31.00;;;;;13.22;63.72;100898.84;146625;574;45016;-70
2022/04/06 05:35:24;;;;;;;;;39.00;32.75;;;;;13.43;62.60;100905.81;146628;630;45917;-69
2022/04/06 05:38:34;;;;;;;;;39.50;32.00;;;;;13.62;62.32;100908.37;146626;563;45911;-65
2022/04/06 05:41:42;;;;;;;;;36.50;32.00;;;;;13.83;61.60;100904.06;146630;621;45021;-66
2022/04/06 05:45:00;;;;;;;;;40.75;33.25;;;;;14.04;60.64;100910.94;146622;575;46012;-67
2022/04/06 05:48:14;;;;;;;;;35.00;29.75;;;;;14.21;60.25;100917.75;146629;647;45008;-68
2022/04/06 05:51:46;;;;;;;;;39.75;31.75;;;;;14.36;59.39;100921.75;146622;620;45914;-67
2022/04/06 05:54:46;;;;;;;;;41.00;32.50;;;;;14.48;60.04;100919.63;146628;573;46008;-68
2022/04/06 05:58:24;;;;;;;;;33.50;28.75;;;;;14.61;59.26;100914.09;146624;601;45914;-68
2022/04/06 06:01:22;;;;;;;;;37.75;33.00;;;;;14.79;59.57;100922.59;146628;572;46008;-68
2022/04/06 06:04:41;;;;;;;;;34.25;29.50;;;;;14.01;59.04;100751.78;146624;581;45914;-69
2022/04/06 06:07:48;;;;;;;;;30.50;28.50;;;;;15.13;58.62;100923.84;146624;721;45012;-68
2022/04/06 06:14:46;;;;;;;;;34.75;29.00;;;;;15.51;57.30;100928.63;146604;641;47008;-68
2022/04/06 06:18:25;;;;;;;;;38.50;30.50;;;;;15.64;56.44;100934.34;146602;583;46016;-68
2022/04/06 06:21:20;;;;;;;;;31.75;29.75;;;;;15.70;57.13;100926.75;146605;615;47012;-67
2022/04/06 06:24:24;;;;;;;;;31.50;28.50;;;;;15.89;57.66;100950.88;146604;570;46016;-67
2022/04/06 06:27:24;;;;;;;;;29.75;27.00;;;;;16.04;56.66;100950.47;146600;643;48008;-70
2022/04/06 06:30:26;;;;;;;;;28.50;25.25;;;;;16.12;56.70;100949.00;146602;585;45914;-69
2022/04/06 06:33:22;;;;;;;;;29.75;26.00;;;;;16.22;56.25;100963.28;146607;585;46021;-68
2022/04/06 06:36:15;;;;;;;;;29.75;25.25;;;;;16.25;56.84;100961.63;146604;584;46016;-69
2022/04/06 06:39:08;;;;;;;;;28.50;27.25;;;;;16.32;56.52;100966.25;146608;613;46008;-70
2022/04/06 06:42:01;;;;;;;;;28.00;26.75;;;;;16.42;55.61;100970.03;146606;565;45915;-69
2022/04/06 06:44:53;;;;;;;;;31.00;25.75;;;;;16.48;56.15;100969.31;146606;563;46026;-68
2022/04/06 06:47:47;;;;;;;;;29.75;26.00;;;;;16.48;56.08;100966.69;146600;739;46016;-68
2022/04/06 06:50:40;;;;;;;;;35.50;31.75;;;;;16.57;55.79;100974.84;146605;589;46021;-68
2022/04/06 06:53:38;;;;;;;;;33.75;29.75;;;;;16.61;55.11;100972.37;146604;587;46016;-67
2022/04/06 06:56:32;;;;;;;;;30.50;29.25;;;;;16.51;55.99;100970.34;146603;590;46021;-68
2022/04/06 06:59:24;;;;;;;;;32.00;28.75;;;;;16.47;56.49;100971.06;146601;594;46016;-70
2022/04/06 07:02:17;;;;;;;;;31.00;27.50;;;;;16.55;56.28;100976.53;146606;609;46020;-69
2022/04/06 07:05:11;;;;;;;;;25.75;24.00;;;;;16.67;56.32;100973.41;146603;626;46016;-70
2022/04/06 07:08:03;;;;;;;;;30.25;24.75;;;;;16.73;56.66;100973.56;146606;579;46012;-69
2022/04/06 07:10:57;;;;;;;;;27.00;26.00;;;;;16.77;56.55;100962.41;146605;629;46010;-69
2022/04/06 07:13:53;;;;;;;;;24.25;23.50;;;;;16.92;57.19;100964.59;146605;630;47012;-67
2022/04/06 07:16:46;;;;;;;;;17.50;16.75;;;;;17.08;56.77;100961.56;146599;617;47914;-69
2022/04/06 07:19:41;;;;;;;;;24.50;22.00;;;;;17.21;55.65;100958.44;146603;564;46021;-68
2022/04/06 07:22:33;;;;;;;;;23.75;22.25;;;;;17.29;56.21;100967.41;146602;589;46016;-69
2022/04/06 07:25:28;;;;;;;;;21.25;17.25;;;;;16.61;55.63;100836.25;146605;570;46012;-70
2022/04/06 07:28:20;;;;;;;;;25.50;21.75;;;;;17.42;56.27;100968.63;146601;578;47010;-69
2022/04/06 07:31:17;;;;;;;;;22.00;20.25;;;;;17.48;56.78;100966.19;146607;646;46020;-69
2022/04/06 07:34:11;;;;;;;;;22.75;20.75;;;;;17.52;55.63;100969.78;146604;581;47011;-69
2022/04/06 07:37:08;;;;;;;;;26.50;25.00;;;;;17.62;55.07;100970.91;146606;626;47008;-69
2022/04/06 07:40:01;;;;;;;;;30.25;26.25;;;;;17.59;54.66;100973.44;146596;608;47013;-69
2022/04/06 07:42:55;;;;;;;;;25.25;23.25;;;;;17.51;55.33;100984.62;146606;599;47008;-68
2022/04/06 07:45:47;;;;;;;;;19.00;16.00;;;;;17.43;54.25;100982.63;146603;591;46012;-69
2022/04/06 07:48:42;;;;;;;;;24.50;22.50;;;;;17.40;54.95;100996.53;146602;610;46024;-69
2022/04/06 07:51:39;;;;;;;;;24.75;21.75;;;;;17.43;54.96;100995.75;146600;564;47011;-69
2022/04/06 07:54:31;;;;;;;;;29.50;25.75;;;;;17.44;54.58;101001.00;146604;569;47008;-70
2022/04/06 07:57:31;;;;;;;;;22.50;20.00;;;;;17.45;54.34;101000.19;146604;583;46016;-69
2022/04/06 08:00:32;;;;;;;;;19.00;17.00;;;;;17.47;54.73;101011.56;146605;592;46020;-69
2022/04/06 08:03:25;;;;;;;;;23.25;23.00;;;;;17.47;54.80;101002.81;146602;604;47010;-69
2022/04/06 08:06:17;;;;;;;;;20.25;17.50;;;;;17.48;54.82;100999.37;146604;655;46008;-69
2022/04/06 08:09:09;;;;;;;;;19.25;18.50;;;;;17.54;55.11;100996.94;146604;607;46912;-68
2022/04/06 08:12:03;;;;;;;;;19.75;19.50;;;;;17.61;54.94;101000.59;146606;564;46021;-69
2022/04/06 08:14:55;;;;;;;;;20.25;19.50;;;;;17.72;55.00;100994.78;146604;597;46010;-70
2022/04/06 08:17:50;;;;;;;;;22.00;19.25;;;;;17.80;55.75;101007.25;146607;596;46008;-75
2022/04/06 08:20:42;;;;;;;;;20.50;19.50;;;;;17.87;55.05;100999.56;146604;589;46012;-69
2022/04/06 08:23:34;;;;;;;;;21.75;18.25;;;;;17.90;55.30;100996.16;146603;587;47012;-71
2022/04/06 08:26:27;;;;;;;;;24.00;22.25;;;;;18.00;55.48;100992.91;146605;619;46017;-70
2022/04/06 08:29:19;;;;;;;;;19.00;17.25;;;;;18.18;53.98;101001.22;146603;603;46924;-72
2022/04/06 08:32:11;;;;;;;;;20.25;18.25;;;;;18.37;53.75;101002.56;146602;602;47011;-71
2022/04/06 08:35:04;;;;;;;;;17.75;17.50;;;;;18.54;53.46;101009.97;146604;569;46021;-71
2022/04/06 08:37:56;;;;;;;;;20.00;17.25;;;;;18.65;53.18;101006.72;146603;616;47012;-72
2022/04/06 08:40:48;;;;;;;;;18.25;17.00;;;;;18.70;53.23;101005.09;146607;604;46008;-71
2022/04/06 08:43:41;;;;;;;;;18.00;16.50;;;;;18.76;52.59;101011.38;146608;619;46010;-71
2022/04/06 08:46:38;;;;;;;;;20.75;17.75;;;;;18.79;52.59;101008.84;146608;572;46008;-71
2022/04/06 08:49:32;;;;;;;;;16.50;15.75;;;;;18.77;52.74;101014.03;146604;573;46016;-68
2022/04/06 08:52:25;;;;;;;;;16.50;13.25;;;;;18.76;52.28;101009.63;146604;564;47008;-68
2022/04/06 08:55:17;;;;;;;;;20.75;18.50;;;;;18.79;53.03;101011.47;146602;609;46032;-72
2022/04/06 08:58:09;;;;;;;;;22.00;17.75;;;;;18.73;51.90;101014.81;146607;588;46020;-72
2022/04/06 09:01:02;;;;;;;;;20.00;16.75;;;;;18.64;52.44;101004.97;146604;585;46017;-72
2022/04/06 09:03:54;;;;;;;;;23.75;22.00;;;;;18.62;51.66;101011.03;146609;583;46026;-74
2022/04/06 09:06:49;;;;;;;;;22.25;20.00;;;;;18.64;52.37;101002.34;146602;575;46010;-72
2022/04/06 09:09:41;;;;;;;;;22.00;19.00;;;;;18.66;52.93;100994.47;146608;623;46021;-72
2022/04/06 09:12:48;;;;;;;;;19.75;17.00;;;;;18.85;52.73;100993.19;146607;676;46010;-71
2022/04/06 09:15:41;;;;;;;;;19.75;17.25;;;;;19.09;52.41;101000.69;146609;583;46020;-72
2022/04/06 09:18:44;;;;;;;;;22.25;20.50;;;;;19.31;51.72;100997.66;146603;622;46010;-72
2022/04/06 09:21:52;;;;;;;;;;;;;;;;;;;;;
2022/04/06 09:25:03;;;;;;;;;25.00;22.75;;;;;19.58;50.92;100993.78;146603;610;46023;-70
2022/04/06 09:27:56;;;;;;;;;18.00;16.50;;;;;19.63;49.93;100986.88;146604;619;47010;-71
2022/04/06 09:30:51;;;;;;;;;17.50;15.25;;;;;19.68;48.98;100979.09;146604;649;46016;-71
2022/04/06 09:33:44;;;;;;;;;18.25;16.25;;;;;19.78;48.85;100979.31;146607;636;46008;-71
2022/04/06 09:36:38;;;;;;;;;16.00;14.25;;;;;19.92;49.16;100986.53;146602;601;47010;-71
2022/04/06 09:39:46;;;;;;;;;14.75;13.50;;;;;20.06;48.65;100972.75;146606;578;46008;-72
2022/04/06 09:42:39;;;;;;;;;17.00;16.50;;;;;20.16;47.25;100976.44;146601;637;47012;-71
2022/04/06 09:49:03;;;;;;;;;18.25;14.00;;;;;19.44;48.97;100825.25;146602;624;46012;-72
2022/04/06 09:51:56;;;;;;;;;17.75;15.75;;;;;20.30;47.04;100972.25;146604;601;47008;-71
2022/04/06 09:54:49;;;;;;;;;14.00;14.00;;;;;20.28;46.97;100962.56;146602;602;46017;-71
2022/04/06 09:58:18;;;;;;;;;14.50;12.25;;;;;20.32;46.34;100961.75;146608;579;46020;-71
2022/04/06 10:01:26;;;;;;;;;7.50;6.75;;;;;20.55;46.67;100959.47;146603;564;46017;-72
2022/04/06 10:04:29;;;;;;;;;13.75;12.25;;;;;20.63;46.58;100943.78;146606;574;45916;-72
2022/04/06 10:15:59;;;;;;;;;9.50;9.25;;;;;20.58;44.68;100934.94;146603;569;47016;-72
2022/04/06 10:19:19;;;;;;;;;;;;;;;;;;;;;
2022/04/06 10:23:29;;;;;;;;;13.75;10.00;;;;;19.75;47.32;100765.22;146610;590;46013;-72
2022/04/06 10:30:32;;;;;;;;;12.75;7.25;;;;;21.06;44.02;100913.59;146610;574;46017;-72
2022/04/06 11:11:45;;;;;;;;;7.25;7.25;;;;;20.70;44.39;100885.91;146608;569;46016;-79
2022/04/06 11:14:37;;;;;;;;;9.25;8.75;;;;;20.65;43.67;100886.72;146610;570;46008;-77
2022/04/06 11:17:42;;;;;;;;;13.25;10.00;;;;;20.71;44.41;100887.66;146604;627;47012;-79
2022/04/06 11:20:37;;;;;;;;;10.00;8.00;;;;;20.86;43.46;100883.47;146601;639;47008;-78
2022/04/06 11:23:33;;;;;;;;;8.00;8.00;;;;;20.97;43.80;100873.94;146598;642;46017;-77
2022/04/06 11:26:25;;;;;;;;;16.25;11.50;;;;;21.05;43.18;100874.88;146601;685;47008;-75
2022/04/06 11:29:18;;;;;;;;;9.33;9.00;;;;;21.09;43.22;100875.81;146600;579;46012;-77
2022/04/06 11:32:11;;;;;;;;;12.75;9.50;;;;;21.14;42.55;100875.00;146603;644;46008;-77
2022/04/06 11:35:08;;;;;;;;;10.25;10.00;;;;;21.14;43.01;100864.44;146597;644;47010;-77
2022/04/06 11:38:00;;;;;;;;;10.00;9.50;;;;;21.07;42.42;100859.97;146603;610;46008;-77
2022/04/06 11:40:52;;;;;;;;;12.00;10.00;;;;;21.04;44.08;100856.44;146600;698;46016;-75
2022/04/06 11:43:46;;;;;;;;;11.75;10.25;;;;;21.05;43.48;100855.56;146601;675;47008;-76
2022/04/06 11:46:49;;;;;;;;;15.00;13.00;;;;;21.06;45.61;100854.69;146598;563;47010;-76
2022/04/06 11:49:42;;;;;;;;;11.75;10.25;;;;;21.11;43.49;100860.91;146601;601;46008;-77
2022/04/06 11:52:34;;;;;;;;;17.25;13.75;;;;;21.14;43.82;100863.56;146597;652;47010;-78
2022/04/06 11:55:50;;;;;;;;;13.50;11.75;;;;;20.86;42.17;100855.34;146601;618;47008;-77
2022/04/06 11:58:43;;;;;;;;;14.50;9.75;;;;;20.65;44.77;100848.06;146599;563;46017;-76
2022/04/06 12:01:48;;;;;;;;;13.50;13.50;;;;;20.33;45.03;100846.75;146601;679;46010;-77
2022/04/06 12:04:41;;;;;;;;;14.25;13.00;;;;;20.16;45.24;100847.44;146595;569;46017;-76
2022/04/06 12:07:33;;;;;;;;;19.25;17.00;;;;;20.15;45.96;100837.72;146601;593;47008;-77
2022/04/06 12:10:26;;;;;;;;;19.00;18.00;;;;;20.32;47.77;100831.84;146595;605;47013;-76
2022/04/06 12:13:18;;;;;;;;;16.00;14.00;;;;;20.49;46.30;100825.03;146603;580;46008;-76
2022/04/06 12:16:12;;;;;;;;;18.75;17.00;;;;;20.67;46.86;100820.00;146600;565;46016;-76
2022/04/06 12:19:08;;;;;;;;;12.25;11.00;;;;;20.70;45.41;100820.03;146606;705;45021;-75
2022/04/06 12:22:08;;;;;;;;;15.75;14.75;;;;;20.74;46.83;100815.69;146596;603;46917;-77
2022/04/06 12:25:00;;;;;;;;;17.00;15.00;;;;;20.84;47.36;100809.66;146602;608;46021;-77
2022/04/06 12:27:52;;;;;;;;;15.75;14.75;;;;;20.83;46.13;100817.53;146602;623;46010;-79
2022/04/06 12:31:06;;;;;;;;;14.50;13.50;;;;;20.71;46.38;100807.75;146603;570;45047;-80
2022/04/06 12:33:58;;;;;;;;;15.00;12.00;;;;;20.47;45.17;100819.75;146597;591;46024;-77
2022/04/06 12:36:54;;;;;;;;;7.75;7.00;;;;;20.35;46.15;100809.06;146601;619;46018;-78
2022/04/06 12:39:54;;;;;;;;;14.75;12.50;;;;;20.27;47.36;100811.56;146595;573;47010;-78
2022/04/06 12:42:46;;;;;;;;;16.25;15.00;;;;;20.32;46.30;100809.00;146600;636;47008;-78
2022/04/06 12:45:52;;;;;;;;;16.25;14.00;;;;;20.29;46.64;100809.84;146598;599;46010;-78
2022/04/06 12:48:45;;;;;;;;;12.50;10.75;;;;;20.22;45.28;100804.50;146602;661;46021;-77
2022/04/06 12:51:37;;;;;;;;;13.00;10.00;;;;;20.18;46.05;100800.91;146597;604;47010;-77
2022/04/06 12:54:35;;;;;;;;;10.75;10.25;;;;;20.18;47.52;100792.13;146600;654;47916;-77
2022/04/06 12:57:36;;;;;;;;;10.25;9.25;;;;;20.23;47.23;100795.72;146600;579;46017;-77
2022/04/06 13:00:30;;;;;;;;;11.50;10.75;;;;;20.32;47.01;100794.97;146600;663;47008;-77
2022/04/06 13:03:22;;;;;;;;;10.00;10.00;;;;;20.33;46.38;100796.72;146596;586;46029;-77
2022/04/06 13:06:14;;;;;;;;;11.50;9.50;;;;;20.27;46.16;100781.72;146600;580;46008;-76
2022/04/06 13:09:06;;;;;;;;;8.25;8.00;;;;;20.28;47.19;100779.13;146599;578;46030;-78
2022/04/06 13:11:59;;;;;;;;;12.00;11.00;;;;;20.25;47.43;100771.19;146599;663;46021;-77
2022/04/06 13:14:52;;;;;;;;;12.25;10.75;;;;;20.29;47.92;100770.34;146598;736;47012;-75
2022/04/06 13:17:45;;;;;;;;;10.50;8.50;;;;;20.29;46.83;100770.34;146600;569;46011;-76
2022/04/06 13:20:37;;;;;;;;;11.00;10.75;;;;;20.18;47.32;100771.06;146599;726;46016;-75
2022/04/06 13:23:29;;;;;;;;;9.50;8.50;;;;;20.06;47.48;100772.72;146602;731;46020;-76
2022/04/06 13:26:22;;;;;;;;;11.00;9.00;;;;;19.96;47.98;100776.06;146597;693;47012;-76
2022/04/06 13:29:14;;;;;;;;;13.25;9.25;;;;;19.91;48.33;100769.00;146600;634;46008;-76
2022/04/06 13:32:07;;;;;;;;;8.00;7.00;;;;;19.88;47.87;100774.22;146601;564;46029;-77
2022/04/06 13:35:00;;;;;;;;;10.25;6.75;;;;;19.82;48.39;100770.62;146602;612;47010;-76
2022/04/06 13:37:52;;;;;;;;;8.50;8.50;;;;;19.78;48.59;100771.44;146603;572;45920;-76
2022/04/06 13:40:44;;;;;;;;;10.50;9.25;;;;;19.77;48.55;100769.66;146603;615;46008;-77
2022/04/06 13:43:36;;;;;;;;;10.00;9.00;;;;;19.79;49.78;100773.19;146599;681;46916;-77
2022/04/06 13:46:28;;;;;;;;;9.25;8.25;;;;;19.77;49.35;100774.91;146602;682;46008;-77
2022/04/06 13:49:21;;;;;;;;;7.75;7.00;;;;;19.75;50.29;100768.78;146597;625;47012;-74
2022/04/06 13:52:15;;;;;;;;;10.25;10.00;;;;;19.73;51.38;100767.84;146602;615;46008;-79
2022/04/06 13:55:09;;;;;;;;;8.75;8.75;;;;;19.67;50.58;100767.75;146600;571;46011;-81
2022/04/06 13:58:02;;;;;;;;;12.00;9.00;;;;;19.56;50.23;100774.56;146602;658;46008;-80
2022/04/06 14:00:55;;;;;;;;;16.50;11.00;;;;;19.49;50.32;100773.59;146597;601;46022;-78
2022/04/06 14:03:47;;;;;;;;;11.00;11.00;;;;;19.50;50.04;100763.94;146600;648;47008;-79
2022/04/06 14:06:39;;;;;;;;;12.75;12.50;;;;;19.51;50.53;100766.63;146597;573;47010;-81
2022/04/06 14:09:31;;;;;;;;;11.50;11.50;;;;;19.56;49.89;100761.41;146601;625;46021;-79
2022/04/06 14:12:23;;;;;;;;;11.50;9.25;;;;;19.62;50.82;100751.87;146596;626;47010;-80
2022/04/06 14:15:16;;;;;;;;;9.25;9.25;;;;;19.66;49.91;100751.94;146597;607;47008;-81
2022/04/06 14:18:07;;;;;;;;;11.50;9.00;;;;;19.55;49.68;100762.28;146596;698;47010;-80
2022/04/06 14:20:59;;;;;;;;;12.00;11.00;;;;;19.47;50.67;100758.63;146607;661;46020;-80
2022/04/06 14:23:51;;;;;;;;;10.75;10.50;;;;;19.43;51.66;100754.19;146600;621;46017;-80
2022/04/06 14:26:43;;;;;;;;;12.50;10.50;;;;;19.45;51.21;100740.22;146600;589;46020;-80
2022/04/06 14:29:38;;;;;;;;;10.00;9.25;;;;;19.50;51.33;100743.81;146601;569;46016;-80
2022/04/06 14:32:30;;;;;;;;;11.00;10.00;;;;;19.57;51.43;100737.78;146604;630;46021;-80
2022/04/06 14:35:23;;;;;;;;;12.75;11.75;;;;;19.67;50.85;100736.19;146600;617;46016;-80